Time;durP1;ratioP1;P1;durP2;ratioP2;P2;SDS_P1;SDS_P2;PMS_P1;PMS_P2;Temp;Humidity;BMP_temperature;BMP_pressure;BME280_temperature;BME280_humidity;BME280_pressure;Samples;Min_cycle;Max_cycle;Signal;HPM_P1;HPM_P2
2022/11/26 00:01:18;;;;;;;14.10;3.40;;;;;;;;;;5022669;28;20453;-76
2022/11/26 00:03:44;;;;;;;11.70;3.67;;;;;;;;;;5009066;28;20172;-75
2022/11/26 00:06:31;;;;;;;11.20;3.30;;;;;;;;;;5020279;28;20466;-76
2022/11/26 00:08:57;;;;;;;10.40;3.10;;;;;;;;;;5006088;28;20459;-75
2022/11/26 00:11:22;;;;;;;10.27;3.67;;;;;;;;;;5019475;28;20504;-75
2022/11/26 00:13:48;;;;;;;17.53;4.10;;;;;;;;;;5020938;28;20185;-76
2022/11/26 00:16:14;;;;;;;9.70;3.20;;;;;;;;;;5020809;28;20397;-75
2022/11/26 00:18:40;;;;;;;11.70;3.23;;;;;;;;;;5019255;28;20710;-75
2022/11/26 00:21:09;;;;;;;9.30;3.53;;;;;;;;;;5000654;28;20208;-76
2022/11/26 00:23:34;;;;;;;11.77;3.20;;;;;;;;;;5020532;28;20930;-75
2022/11/26 00:26:02;;;;;;;11.27;3.47;;;;;;;;;;5005940;28;20446;-76
2022/11/26 00:28:29;;;;;;;18.23;3.97;;;;;;;;;;5018062;28;20200;-75
2022/11/26 00:30:56;;;;;;;7.90;3.07;;;;;;;;;;5019655;28;20423;-76
2022/11/26 00:33:22;;;;;;;12.87;4.37;;;;;;;;;;5006101;28;20915;-75
2022/11/26 00:35:48;;;;;;;10.30;3.57;;;;;;;;;;5019765;28;20419;-76
2022/11/26 00:38:15;;;;;;;15.80;4.70;;;;;;;;;;5017844;28;20725;-75
2022/11/26 00:40:40;;;;;;;14.93;4.00;;;;;;;;;;5018775;28;20432;-76
2022/11/26 00:43:09;;;;;;;12.40;3.97;;;;;;;;;;5005599;28;20435;-76
2022/11/26 00:45:34;;;;;;;14.70;4.10;;;;;;;;;;5019233;28;20203;-75
2022/11/26 00:48:00;;;;;;;11.03;4.13;;;;;;;;;;5019014;28;20863;-75
2022/11/26 00:50:26;;;;;;;14.50;4.07;;;;;;;;;;4999181;28;20228;-76
2022/11/26 00:52:53;;;;;;;17.80;4.83;;;;;;;;;;5017459;28;20911;-75
2022/11/26 00:55:18;;;;;;;13.30;3.60;;;;;;;;;;5020130;28;20408;-76
2022/11/26 00:57:43;;;;;;;18.53;4.67;;;;;;;;;;5018848;28;20415;-76
2022/11/26 01:00:13;;;;;;;12.47;3.70;;;;;;;;;;5019566;28;20246;-75
2022/11/26 01:02:38;;;;;;;12.93;3.57;;;;;;;;;;5018870;28;20196;-75
2022/11/26 01:05:04;;;;;;;9.27;3.70;;;;;;;;;;4999494;28;20913;-75
2022/11/26 01:07:29;;;;;;;11.83;3.30;;;;;;;;;;5012936;28;20184;-76
2022/11/26 01:09:54;;;;;;;10.43;3.43;;;;;;;;;;5018841;28;20197;-75
2022/11/26 01:12:20;;;;;;;12.73;3.17;;;;;;;;;;5019446;28;20648;-75
2022/11/26 01:14:45;;;;;;;10.23;3.30;;;;;;;;;;5006538;28;20188;-76
2022/11/26 01:17:11;;;;;;;12.50;3.53;;;;;;;;;;5024198;28;20177;-75
2022/11/26 01:19:36;;;;;;;17.33;4.30;;;;;;;;;;5003475;28;20196;-76
2022/11/26 01:22:01;;;;;;;10.30;3.47;;;;;;;;;;4998287;28;20259;-76
2022/11/26 01:24:26;;;;;;;9.63;3.07;;;;;;;;;;5009973;28;20193;-75
2022/11/26 01:26:52;;;;;;;11.10;3.90;;;;;;;;;;5005447;28;20185;-76
2022/11/26 01:29:18;;;;;;;13.80;4.23;;;;;;;;;;5003951;28;20220;-76
2022/11/26 01:31:43;;;;;;;13.10;3.93;;;;;;;;;;5019997;28;20279;-75
2022/11/26 01:34:09;;;;;;;10.63;3.33;;;;;;;;;;5004514;28;20494;-76
2022/11/26 01:36:35;;;;;;;13.00;3.47;;;;;;;;;;5022380;28;20643;-76
2022/11/26 01:39:04;;;;;;;12.67;3.60;;;;;;;;;;5004112;28;20510;-75
2022/11/26 01:41:44;;;;;;;11.73;4.13;;;;;;;;;;5013023;28;20438;-76
2022/11/26 01:44:20;;;;;;;11.83;4.00;;;;;;;;;;5008067;28;20430;-75
2022/11/26 01:46:45;;;;;;;11.83;3.90;;;;;;;;;;5024909;28;20506;-75
2022/11/26 01:49:21;;;;;;;14.00;3.87;;;;;;;;;;5023895;28;20962;-76
2022/11/26 01:51:47;;;;;;;11.40;3.40;;;;;;;;;;5020787;28;20204;-76
2022/11/26 01:54:13;;;;;;;11.00;4.50;;;;;;;;;;5026032;28;20564;-76
2022/11/26 01:57:02;;;;;;;14.43;4.20;;;;;;;;;;5021303;28;20439;-76
2022/11/26 01:59:30;;;;;;;7.60;2.87;;;;;;;;;;5023886;28;20443;-76
2022/11/26 02:01:57;;;;;;;10.80;3.73;;;;;;;;;;5023352;28;20539;-76
2022/11/26 02:04:25;;;;;;;15.40;4.50;;;;;;;;;;5022255;28;20416;-76
2022/11/26 02:06:52;;;;;;;11.93;4.10;;;;;;;;;;5005972;28;20514;-75
2022/11/26 02:09:18;;;;;;;11.73;3.87;;;;;;;;;;5003904;28;20509;-76
2022/11/26 02:11:44;;;;;;;16.80;4.47;;;;;;;;;;5022909;28;20905;-76
2022/11/26 02:14:19;;;;;;;11.93;4.50;;;;;;;;;;5025065;28;20514;-75
2022/11/26 02:17:04;;;;;;;13.90;3.67;;;;;;;;;;5021772;28;20561;-75
2022/11/26 02:19:44;;;;;;;18.40;4.90;;;;;;;;;;5020211;28;20482;-75
2022/11/26 02:22:19;;;;;;;9.30;3.20;;;;;;;;;;5019903;28;20572;-76
2022/11/26 02:24:44;;;;;;;9.70;3.30;;;;;;;;;;5021926;28;20527;-75
2022/11/26 02:27:12;;;;;;;10.53;3.37;;;;;;;;;;5015960;28;21443;-75
2022/11/26 02:30:01;;;;;;;10.10;3.80;;;;;;;;;;5022959;28;20208;-76
2022/11/26 02:32:30;;;;;;;15.27;4.10;;;;;;;;;;5024003;28;20423;-76
2022/11/26 02:35:19;;;;;;;23.37;5.50;;;;;;;;;;5019224;28;20447;-76
2022/11/26 02:37:51;;;;;;;11.73;3.97;;;;;;;;;;5010492;28;20424;-75
2022/11/26 02:40:17;;;;;;;12.17;4.10;;;;;;;;;;5017811;28;20501;-75
2022/11/26 02:42:42;;;;;;;11.93;4.27;;;;;;;;;;5020495;28;20420;-76
2022/11/26 02:45:10;;;;;;;11.67;4.00;;;;;;;;;;5020417;28;20529;-75
2022/11/26 02:47:37;;;;;;;15.40;4.57;;;;;;;;;;5000652;28;20317;-75
2022/11/26 02:50:05;;;;;;;14.33;4.50;;;;;;;;;;5017247;28;20467;-76
2022/11/26 02:52:31;;;;;;;16.60;3.80;;;;;;;;;;5020166;28;20419;-75
2022/11/26 02:54:57;;;;;;;14.20;4.47;;;;;;;;;;5021785;28;20416;-76
2022/11/26 02:57:25;;;;;;;13.87;4.53;;;;;;;;;;5009096;28;20422;-76
2022/11/26 02:59:50;;;;;;;11.40;4.50;;;;;;;;;;5004618;28;20231;-75
2022/11/26 03:02:23;;;;;;;18.47;4.47;;;;;;;;;;5019778;28;20427;-75
2022/11/26 03:04:50;;;;;;;13.10;4.60;;;;;;;;;;5006744;28;20185;-75
2022/11/26 03:07:15;;;;;;;12.27;4.63;;;;;;;;;;5025220;28;20506;-75
2022/11/26 03:09:47;;;;;;;10.73;4.40;;;;;;;;;;5003455;28;20487;-75
2022/11/26 03:12:12;;;;;;;14.30;4.70;;;;;;;;;;5022186;28;20626;-75
2022/11/26 03:14:40;;;;;;;13.40;4.70;;;;;;;;;;5007075;28;20415;-75
2022/11/26 03:17:05;;;;;;;17.30;5.07;;;;;;;;;;5023978;28;20468;-76
2022/11/26 03:19:31;;;;;;;13.73;5.23;;;;;;;;;;5021368;28;20926;-76
2022/11/26 03:21:56;;;;;;;17.80;5.47;;;;;;;;;;5023122;28;20205;-76
2022/11/26 03:24:21;;;;;;;16.30;5.77;;;;;;;;;;5024253;28;20260;-75
2022/11/26 03:26:47;;;;;;;12.87;4.60;;;;;;;;;;5021526;28;20640;-75
2022/11/26 03:29:12;;;;;;;9.37;4.50;;;;;;;;;;5021962;28;20192;-75
2022/11/26 03:31:37;;;;;;;20.93;5.70;;;;;;;;;;5003948;28;20634;-75
2022/11/26 03:34:02;;;;;;;17.17;6.10;;;;;;;;;;5016994;28;20184;-75
2022/11/26 03:36:28;;;;;;;12.23;5.50;;;;;;;;;;5022724;28;20173;-76
2022/11/26 03:38:53;;;;;;;10.27;4.83;;;;;;;;;;5005007;28;20184;-75
2022/11/26 03:41:18;;;;;;;13.47;5.30;;;;;;;;;;5026130;28;20607;-75
2022/11/26 03:43:44;;;;;;;15.73;5.63;;;;;;;;;;5021572;28;20203;-76
2022/11/26 03:46:09;;;;;;;15.10;6.00;;;;;;;;;;4998707;28;20185;-75
2022/11/26 03:48:34;;;;;;;13.70;5.63;;;;;;;;;;5022192;28;20196;-76
2022/11/26 03:51:00;;;;;;;11.53;5.73;;;;;;;;;;5022510;28;20220;-76
2022/11/26 03:53:25;;;;;;;17.30;7.03;;;;;;;;;;5001986;28;20217;-75
2022/11/26 03:55:50;;;;;;;13.30;6.00;;;;;;;;;;5023247;28;20650;-75
2022/11/26 03:58:16;;;;;;;14.23;5.70;;;;;;;;;;5003107;28;20192;-75
2022/11/26 04:00:41;;;;;;;14.77;6.37;;;;;;;;;;5007378;28;20212;-75
2022/11/26 04:03:06;;;;;;;19.60;6.47;;;;;;;;;;5021694;28;20184;-75
2022/11/26 04:05:32;;;;;;;24.83;6.77;;;;;;;;;;5023745;28;20180;-75
2022/11/26 04:07:57;;;;;;;15.00;6.40;;;;;;;;;;5001905;28;20187;-76
2022/11/26 04:10:22;;;;;;;13.77;5.83;;;;;;;;;;5021539;28;20193;-75
2022/11/26 04:12:48;;;;;;;16.43;6.17;;;;;;;;;;5006061;28;20184;-76
2022/11/26 04:15:13;;;;;;;20.37;6.57;;;;;;;;;;5021708;28;20176;-75
2022/11/26 04:17:38;;;;;;;17.80;7.00;;;;;;;;;;5021287;28;20176;-76
2022/11/26 04:20:04;;;;;;;13.93;5.93;;;;;;;;;;5021686;28;20184;-75
2022/11/26 04:22:29;;;;;;;17.30;6.10;;;;;;;;;;5022237;28;20187;-76
2022/11/26 04:24:55;;;;;;;22.80;6.27;;;;;;;;;;5023075;28;20177;-75
2022/11/26 04:27:20;;;;;;;13.27;5.90;;;;;;;;;;5021997;28;20182;-75
2022/11/26 04:29:45;;;;;;;20.30;6.27;;;;;;;;;;5022555;28;20299;-75
2022/11/26 04:32:13;;;;;;;12.17;5.00;;;;;;;;;;5022219;28;20204;-75
2022/11/26 04:34:38;;;;;;;12.70;5.30;;;;;;;;;;5021377;28;20226;-75
2022/11/26 04:37:04;;;;;;;18.27;6.07;;;;;;;;;;5020924;28;20435;-75
2022/11/26 04:39:29;;;;;;;13.37;6.43;;;;;;;;;;5020809;28;20271;-75
2022/11/26 04:41:54;;;;;;;13.77;6.57;;;;;;;;;;5019916;28;20220;-75
2022/11/26 04:44:19;;;;;;;12.00;6.10;;;;;;;;;;5019782;28;20306;-75
2022/11/26 04:46:45;;;;;;;12.77;6.23;;;;;;;;;;5020819;28;20176;-76
2022/11/26 04:49:10;;;;;;;14.03;5.67;;;;;;;;;;5019593;28;20283;-75
2022/11/26 04:51:35;;;;;;;13.57;6.50;;;;;;;;;;5025327;28;20262;-75
2022/11/26 04:54:01;;;;;;;21.20;6.27;;;;;;;;;;5009036;28;20199;-76
2022/11/26 04:56:26;;;;;;;14.53;5.80;;;;;;;;;;5024423;28;20670;-76
2022/11/26 04:58:51;;;;;;;17.03;6.13;;;;;;;;;;5023854;28;20562;-75
2022/11/26 05:01:17;;;;;;;15.27;6.57;;;;;;;;;;5023730;28;20238;-75
2022/11/26 05:03:42;;;;;;;18.00;6.00;;;;;;;;;;5023947;28;20531;-75
2022/11/26 05:06:07;;;;;;;19.17;6.60;;;;;;;;;;5024496;28;20184;-76
2022/11/26 05:08:33;;;;;;;16.33;6.70;;;;;;;;;;5023866;28;20287;-75
2022/11/26 05:11:00;;;;;;;13.60;6.50;;;;;;;;;;5025318;28;20604;-75
2022/11/26 05:13:25;;;;;;;17.40;6.87;;;;;;;;;;5009704;28;20188;-75
2022/11/26 05:15:50;;;;;;;17.93;7.10;;;;;;;;;;5008706;28;20462;-75
2022/11/26 05:18:16;;;;;;;15.20;7.20;;;;;;;;;;5008723;28;20185;-75
2022/11/26 05:23:08;;;;;;;12.70;6.80;;;;;;;;;;4998306;28;21137;-67
2022/11/26 05:25:34;;;;;;;17.73;8.07;;;;;;;;;;5005332;28;20499;-67
2022/11/26 05:27:59;;;;;;;19.10;7.80;;;;;;;;;;4987000;28;20177;-67
2022/11/26 05:30:24;;;;;;;19.43;7.30;;;;;;;;;;5002507;28;20173;-67
2022/11/26 05:32:49;;;;;;;21.57;8.10;;;;;;;;;;5008095;28;20193;-67
2022/11/26 05:35:15;;;;;;;18.73;7.57;;;;;;;;;;5024170;28;20639;-67
2022/11/26 05:37:40;;;;;;;16.03;6.90;;;;;;;;;;5023367;28;20185;-67
2022/11/26 05:40:07;;;;;;;17.40;7.77;;;;;;;;;;5024179;28;20181;-67
2022/11/26 05:42:32;;;;;;;16.40;7.03;;;;;;;;;;5023284;28;20215;-67
2022/11/26 05:44:58;;;;;;;20.77;8.27;;;;;;;;;;5024653;28;20821;-67
2022/11/26 05:47:23;;;;;;;11.47;6.67;;;;;;;;;;5021698;28;20180;-67
2022/11/26 05:49:48;;;;;;;19.60;8.47;;;;;;;;;;5024223;28;20216;-67
2022/11/26 05:52:13;;;;;;;11.67;7.40;;;;;;;;;;5022738;28;20284;-67
2022/11/26 05:54:39;;;;;;;19.57;7.53;;;;;;;;;;5022232;28;20173;-67
2022/11/26 05:57:04;;;;;;;13.27;8.53;;;;;;;;;;5024479;28;20549;-67
2022/11/26 05:59:29;;;;;;;15.87;7.30;;;;;;;;;;5022522;28;20173;-67
2022/11/26 06:01:55;;;;;;;14.77;7.70;;;;;;;;;;5022604;28;20205;-67
2022/11/26 06:04:20;;;;;;;16.73;7.73;;;;;;;;;;5022718;28;20180;-67
2022/11/26 06:06:45;;;;;;;15.80;6.93;;;;;;;;;;5021430;28;20176;-67
2022/11/26 06:09:11;;;;;;;15.77;7.00;;;;;;;;;;5021661;28;20212;-67
2022/11/26 06:11:36;;;;;;;17.67;7.10;;;;;;;;;;5023525;28;20188;-67
2022/11/26 06:14:01;;;;;;;17.80;7.77;;;;;;;;;;5022623;28;20585;-66
2022/11/26 06:16:27;;;;;;;10.57;7.37;;;;;;;;;;5023848;28;20593;-67
2022/11/26 06:18:52;;;;;;;13.67;7.00;;;;;;;;;;5022251;28;20184;-67
2022/11/26 06:21:17;;;;;;;13.37;7.60;;;;;;;;;;5022337;28;20205;-67
2022/11/26 06:23:43;;;;;;;16.20;7.20;;;;;;;;;;5007762;28;20651;-67
2022/11/26 06:26:09;;;;;;;16.87;8.13;;;;;;;;;;5022468;28;20180;-67
2022/11/26 06:28:37;;;;;;;16.00;8.60;;;;;;;;;;5021435;28;20243;-67
2022/11/26 06:31:03;;;;;;;11.27;8.03;;;;;;;;;;5021075;28;20526;-67
2022/11/26 06:33:28;;;;;;;15.93;7.50;;;;;;;;;;5022431;28;20503;-67
2022/11/26 06:36:03;;;;;;;11.07;7.73;;;;;;;;;;5022813;28;20559;-67
2022/11/26 06:38:32;;;;;;;13.33;6.70;;;;;;;;;;5021030;28;20191;-67
2022/11/26 06:40:58;;;;;;;17.23;8.07;;;;;;;;;;5018723;28;20443;-67
2022/11/26 06:43:23;;;;;;;17.47;8.73;;;;;;;;;;5020973;28;20863;-67
2022/11/26 06:45:48;;;;;;;15.00;8.27;;;;;;;;;;5023638;28;20440;-67
2022/11/26 06:48:13;;;;;;;14.77;8.73;;;;;;;;;;5022622;28;20179;-66
2022/11/26 06:50:42;;;;;;;15.13;7.57;;;;;;;;;;5020210;28;20199;-67
2022/11/26 06:53:07;;;;;;;16.70;7.97;;;;;;;;;;5022845;28;20235;-67
2022/11/26 06:55:32;;;;;;;20.10;9.30;;;;;;;;;;5001830;28;20929;-67
2022/11/26 06:57:58;;;;;;;13.70;8.20;;;;;;;;;;5020960;28;20466;-67
2022/11/26 07:00:23;;;;;;;15.40;8.60;;;;;;;;;;5022549;28;20184;-66
2022/11/26 07:02:48;;;;;;;19.93;9.07;;;;;;;;;;5021967;28;20204;-67
2022/11/26 07:05:14;;;;;;;20.80;7.63;;;;;;;;;;5022177;28;20615;-67
2022/11/26 07:07:39;;;;;;;15.17;9.07;;;;;;;;;;5004732;28;20524;-67
2022/11/26 07:10:05;;;;;;;16.60;8.53;;;;;;;;;;5021396;28;20272;-67
2022/11/26 07:12:31;;;;;;;14.43;8.40;;;;;;;;;;5021255;28;20249;-67
2022/11/26 07:14:56;;;;;;;10.10;7.80;;;;;;;;;;5022170;28;20170;-67
2022/11/26 07:17:21;;;;;;;18.07;9.40;;;;;;;;;;5021359;28;20220;-66
2022/11/26 07:19:47;;;;;;;15.23;9.50;;;;;;;;;;5022890;28;20234;-67
2022/11/26 07:22:13;;;;;;;11.10;8.10;;;;;;;;;;5021537;28;20683;-66
2022/11/26 07:24:38;;;;;;;16.90;9.50;;;;;;;;;;5021247;28;20412;-67
2022/11/26 07:27:04;;;;;;;19.03;9.97;;;;;;;;;;5021971;28;20192;-66
2022/11/26 07:29:29;;;;;;;17.37;10.40;;;;;;;;;;5019521;28;20206;-67
2022/11/26 07:31:54;;;;;;;17.30;10.87;;;;;;;;;;5020807;28;20214;-66
2022/11/26 07:34:20;;;;;;;19.00;11.20;;;;;;;;;;5020340;28;20647;-66
2022/11/26 07:36:45;;;;;;;20.40;10.27;;;;;;;;;;5021130;28;20223;-66
2022/11/26 07:39:10;;;;;;;18.63;10.77;;;;;;;;;;5021131;28;20234;-66
2022/11/26 07:41:36;;;;;;;21.60;11.17;;;;;;;;;;5000393;28;20209;-67
2022/11/26 07:44:01;;;;;;;19.87;9.90;;;;;;;;;;5002451;28;20188;-66
2022/11/26 07:46:27;;;;;;;20.70;10.00;;;;;;;;;;5020484;28;20185;-66
2022/11/26 07:48:53;;;;;;;16.93;10.20;;;;;;;;;;5019235;28;20206;-66
2022/11/26 07:51:20;;;;;;;30.27;9.83;;;;;;;;;;5019538;28;20271;-66
2022/11/26 07:53:46;;;;;;;49.33;11.60;;;;;;;;;;5020335;28;20422;-66
2022/11/26 07:56:11;;;;;;;22.17;9.37;;;;;;;;;;5020256;28;20416;-66
2022/11/26 07:58:37;;;;;;;15.03;8.93;;;;;;;;;;5005164;28;20176;-67
2022/11/26 08:01:13;;;;;;;10.90;8.90;;;;;;;;;;5019921;28;20218;-65
2022/11/26 08:03:39;;;;;;;13.20;9.40;;;;;;;;;;5020537;28;20590;-66
2022/11/26 08:06:05;;;;;;;15.77;9.87;;;;;;;;;;5019700;28;20911;-66
2022/11/26 08:08:32;;;;;;;14.90;10.23;;;;;;;;;;5016500;28;20454;-66
2022/11/26 08:10:57;;;;;;;29.60;11.47;;;;;;;;;;5021357;28;20462;-66
2022/11/26 08:13:24;;;;;;;39.30;10.67;;;;;;;;;;5020949;28;20436;-66
2022/11/26 08:15:49;;;;;;;19.73;10.53;;;;;;;;;;5005795;28;20515;-66
2022/11/26 08:18:14;;;;;;;17.43;11.20;;;;;;;;;;5018233;28;20184;-67
2022/11/26 08:20:40;;;;;;;14.70;10.30;;;;;;;;;;5020437;28;20561;-67
2022/11/26 08:23:05;;;;;;;30.13;10.60;;;;;;;;;;5018710;28;20652;-66
2022/11/26 08:25:31;;;;;;;30.73;11.57;;;;;;;;;;5019592;28;20181;-66
2022/11/26 08:27:56;;;;;;;27.77;9.70;;;;;;;;;;5004892;28;20242;-66
2022/11/26 08:30:22;;;;;;;19.00;10.27;;;;;;;;;;5019663;28;20215;-66
2022/11/26 08:32:47;;;;;;;28.57;10.70;;;;;;;;;;5003820;28;20291;-67
2022/11/26 08:35:12;;;;;;;22.00;9.67;;;;;;;;;;5016394;28;20169;-66
2022/11/26 08:37:38;;;;;;;18.83;10.73;;;;;;;;;;5018992;28;20264;-66
2022/11/26 08:40:13;;;;;;;19.30;10.63;;;;;;;;;;5019935;28;20176;-66
2022/11/26 08:42:38;;;;;;;20.63;10.43;;;;;;;;;;5019088;28;20207;-66
2022/11/26 08:45:04;;;;;;;16.03;10.17;;;;;;;;;;5000827;28;20431;-67
2022/11/26 08:47:29;;;;;;;17.27;11.10;;;;;;;;;;5018408;28;20189;-67
2022/11/26 08:49:55;;;;;;;30.27;11.70;;;;;;;;;;5018359;28;20197;-67
2022/11/26 08:52:20;;;;;;;56.83;11.93;;;;;;;;;;5019400;28;20201;-67
2022/11/26 08:54:48;;;;;;;18.13;11.03;;;;;;;;;;5018122;28;20615;-67
2022/11/26 08:57:14;;;;;;;30.53;12.90;;;;;;;;;;5019292;28;20272;-67
2022/11/26 08:59:39;;;;;;;21.97;13.10;;;;;;;;;;5018040;28;20531;-66
2022/11/26 09:02:05;;;;;;;30.30;13.03;;;;;;;;;;5019786;28;20326;-66
2022/11/26 09:04:30;;;;;;;32.57;14.30;;;;;;;;;;5019271;28;20719;-67
2022/11/26 09:06:58;;;;;;;21.10;13.03;;;;;;;;;;5019455;28;20184;-66
2022/11/26 09:09:24;;;;;;;16.90;12.20;;;;;;;;;;5016099;28;20205;-67
2022/11/26 09:11:49;;;;;;;43.83;14.53;;;;;;;;;;5013621;28;20562;-66
2022/11/26 09:14:16;;;;;;;45.97;13.40;;;;;;;;;;5005581;28;20275;-66
2022/11/26 09:16:41;;;;;;;46.13;13.27;;;;;;;;;;5018722;28;20624;-67
2022/11/26 09:19:16;;;;;;;60.53;14.03;;;;;;;;;;5017922;28;20423;-67
2022/11/26 09:21:42;;;;;;;14.30;12.60;;;;;;;;;;5018857;28;20234;-66
2022/11/26 09:24:07;;;;;;;23.70;13.67;;;;;;;;;;5017164;28;20423;-67
2022/11/26 09:26:33;;;;;;;24.03;14.20;;;;;;;;;;4994408;28;20192;-67
2022/11/26 09:28:58;;;;;;;33.87;15.37;;;;;;;;;;5018719;28;20223;-66
2022/11/26 09:31:30;;;;;;;22.83;14.70;;;;;;;;;;5019751;28;20214;-66
2022/11/26 09:33:56;;;;;;;40.40;16.07;;;;;;;;;;5018626;28;20196;-66
2022/11/26 09:36:22;;;;;;;28.97;15.60;;;;;;;;;;5021735;28;20421;-65
2022/11/26 09:38:47;;;;;;;33.20;14.90;;;;;;;;;;5004056;28;20423;-66
2022/11/26 09:41:13;;;;;;;25.80;16.97;;;;;;;;;;5021010;28;20197;-66
2022/11/26 09:43:38;;;;;;;22.57;16.27;;;;;;;;;;5008417;28;20185;-66
2022/11/26 09:46:04;;;;;;;29.60;17.30;;;;;;;;;;5022270;28;20434;-66
2022/11/26 09:48:31;;;;;;;25.50;16.27;;;;;;;;;;5020666;28;20215;-66
2022/11/26 09:51:03;;;;;;;38.20;16.63;;;;;;;;;;5021201;28;20292;-66
2022/11/26 09:53:35;;;;;;;29.90;17.20;;;;;;;;;;5020451;28;20813;-66
2022/11/26 09:56:01;;;;;;;24.40;17.27;;;;;;;;;;5003822;28;20933;-66
2022/11/26 09:58:29;;;;;;;29.77;16.70;;;;;;;;;;5020352;28;20419;-66
2022/11/26 10:00:56;;;;;;;45.10;17.70;;;;;;;;;;5020686;28;20200;-66
2022/11/26 10:03:31;;;;;;;51.63;17.73;;;;;;;;;;5019636;28;20427;-66
2022/11/26 10:06:17;;;;;;;43.73;17.20;;;;;;;;;;5019835;28;20925;-66
2022/11/26 10:09:00;;;;;;;42.37;17.30;;;;;;;;;;4982621;28;21480;-66
2022/11/26 10:11:44;;;;;;;68.10;18.07;;;;;;;;;;5015172;28;20501;-65
2022/11/26 10:14:27;;;;;;;44.13;17.90;;;;;;;;;;5021573;28;20524;-66
2022/11/26 10:17:11;;;;;;;36.07;17.30;;;;;;;;;;5020200;28;20412;-65
2022/11/26 10:19:52;;;;;;;36.00;20.13;;;;;;;;;;5020482;28;20416;-66
2022/11/26 10:22:23;;;;;;;32.30;17.23;;;;;;;;;;5020640;28;20458;-66
2022/11/26 10:24:49;;;;;;;40.10;18.10;;;;;;;;;;5020030;28;20497;-66
2022/11/26 10:27:15;;;;;;;36.60;17.23;;;;;;;;;;5022478;28;20568;-66
2022/11/26 10:29:42;;;;;;;49.93;19.20;;;;;;;;;;5020321;28;20239;-66
2022/11/26 10:32:13;;;;;;;40.40;20.13;;;;;;;;;;5019623;28;20431;-66
2022/11/26 10:34:52;;;;;;;54.50;19.20;;;;;;;;;;5020086;28;20404;-66
2022/11/26 10:37:22;;;;;;;34.23;17.70;;;;;;;;;;5019963;28;20889;-66
2022/11/26 10:39:48;;;;;;;40.50;17.13;;;;;;;;;;5019186;28;20415;-66
2022/11/26 10:42:16;;;;;;;20.60;16.13;;;;;;;;;;5019181;28;20447;-66
2022/11/26 10:44:41;;;;;;;63.33;19.10;;;;;;;;;;5021701;28;20439;-66
2022/11/26 10:47:33;;;;;;;67.87;20.70;;;;;;;;;;5020508;28;20420;-66
2022/11/26 10:50:01;;;;;;;21.23;16.97;;;;;;;;;;5018190;28;20241;-65
2022/11/26 10:52:28;;;;;;;48.77;19.00;;;;;;;;;;5019549;28;20446;-66
2022/11/26 10:55:12;;;;;;;48.07;17.73;;;;;;;;;;5004428;28;20423;-66
2022/11/26 10:57:42;;;;;;;52.70;19.03;;;;;;;;;;5001988;28;20528;-66
2022/11/26 11:00:24;;;;;;;27.33;17.87;;;;;;;;;;5008528;28;20446;-66
2022/11/26 11:02:50;;;;;;;62.40;18.77;;;;;;;;;;5018490;28;20443;-66
2022/11/26 11:05:18;;;;;;;34.93;18.70;;;;;;;;;;5016930;28;20969;-66
2022/11/26 11:07:44;;;;;;;25.73;17.50;;;;;;;;;;5017134;28;20176;-65
2022/11/26 11:10:09;;;;;;;31.53;18.33;;;;;;;;;;5018858;28;20525;-65
2022/11/26 11:12:35;;;;;;;30.53;19.57;;;;;;;;;;5021017;28;20185;-66
2022/11/26 11:15:19;;;;;;;29.33;19.33;;;;;;;;;;5018003;28;20220;-66
2022/11/26 11:17:52;;;;;;;34.20;18.97;;;;;;;;;;5018919;28;20219;-66
2022/11/26 11:20:17;;;;;;;35.20;20.43;;;;;;;;;;5019669;28;20415;-66
2022/11/26 11:22:44;;;;;;;34.67;19.83;;;;;;;;;;5030343;23;20573;-77
2022/11/26 11:25:23;;;;;;;55.80;21.10;;;;;;;;;;5004626;28;20202;-76
2022/11/26 11:27:49;;;;;;;37.70;19.80;;;;;;;;;;5003252;28;20852;-76
2022/11/26 11:30:41;;;;;;;52.60;23.00;;;;;;;;;;5006238;28;20510;-76
2022/11/26 11:33:10;;;;;;;76.70;21.97;;;;;;;;;;5015815;28;20232;-76
2022/11/26 11:35:35;;;;;;;30.73;20.83;;;;;;;;;;5019055;28;20530;-77
2022/11/26 11:38:01;;;;;;;53.20;22.53;;;;;;;;;;5018195;28;20506;-77
2022/11/26 11:40:29;;;;;;;42.33;21.73;;;;;;;;;;5017696;28;20181;-76
2022/11/26 11:43:04;;;;;;;43.73;24.43;;;;;;;;;;4999663;28;20209;-76
2022/11/26 11:45:29;;;;;;;44.23;24.60;;;;;;;;;;5019131;28;20404;-77
2022/11/26 11:48:05;;;;;;;46.13;25.30;;;;;;;;;;5017308;28;20412;-76
2022/11/26 11:50:49;;;;;;;43.80;25.97;;;;;;;;;;5017404;28;20678;-76
2022/11/26 11:53:26;;;;;;;51.70;27.50;;;;;;;;;;5017167;28;20432;-77
2022/11/26 11:56:03;;;;;;;37.23;25.33;;;;;;;;;;5017572;28;20417;-76
2022/11/26 11:58:47;;;;;;;41.53;25.87;;;;;;;;;;5012817;28;20435;-77
2022/11/26 12:01:31;;;;;;;49.03;27.97;;;;;;;;;;5017163;28;20412;-76
2022/11/26 12:04:24;;;;;;;53.93;28.67;;;;;;;;;;5014759;28;20448;-76
2022/11/26 12:07:08;;;;;;;62.60;28.27;;;;;;;;;;5013883;28;20463;-76
2022/11/26 12:09:43;;;;;;;59.80;28.43;;;;;;;;;;5016288;28;20551;-77
2022/11/26 12:12:14;;;;;;;65.17;30.43;;;;;;;;;;5017539;28;20442;-76
2022/11/26 12:14:46;;;;;;;63.00;30.30;;;;;;;;;;5018639;28;20408;-77
2022/11/26 12:17:29;;;;;;;57.90;30.90;;;;;;;;;;5003446;28;22215;-77
2022/11/26 12:20:00;;;;;;;56.07;30.70;;;;;;;;;;5017046;28;20443;-76
2022/11/26 12:22:28;;;;;;;73.30;32.77;;;;;;;;;;5019444;28;20458;-76
2022/11/26 12:24:55;;;;;;;62.07;31.27;;;;;;;;;;5021397;28;20515;-76
2022/11/26 12:27:25;;;;;;;65.77;32.57;;;;;;;;;;5023378;28;20790;-76
2022/11/26 12:29:54;;;;;;;66.57;33.97;;;;;;;;;;5008736;28;20455;-77
2022/11/26 12:32:24;;;;;;;63.50;30.87;;;;;;;;;;5022603;28;20443;-76
2022/11/26 12:34:51;;;;;;;67.10;33.10;;;;;;;;;;5022626;28;20404;-76
2022/11/26 12:37:17;;;;;;;64.93;35.10;;;;;;;;;;5022494;28;20826;-77
2022/11/26 12:39:57;;;;;;;79.03;35.70;;;;;;;;;;5020046;28;20430;-76
2022/11/26 12:42:25;;;;;;;67.90;32.63;;;;;;;;;;5022989;28;20431;-77
2022/11/26 12:44:51;;;;;;;87.00;34.43;;;;;;;;;;5002201;28;20424;-76
2022/11/26 12:47:35;;;;;;;79.37;35.37;;;;;;;;;;5019755;28;20506;-77
2022/11/26 12:50:04;;;;;;;78.03;34.40;;;;;;;;;;5022433;28;20231;-76
2022/11/26 12:52:29;;;;;;;77.57;37.37;;;;;;;;;;5020980;28;21005;-77
2022/11/26 12:55:13;;;;;;;66.63;34.20;;;;;;;;;;5019947;28;20717;-77
2022/11/26 12:57:38;;;;;;;64.23;30.90;;;;;;;;;;5021245;28;20192;-76
2022/11/26 13:00:09;;;;;;;60.40;33.33;;;;;;;;;;5019256;28;20424;-76
2022/11/26 13:02:36;;;;;;;65.40;33.07;;;;;;;;;;5001244;28;20200;-76
2022/11/26 13:05:02;;;;;;;68.73;33.00;;;;;;;;;;5020715;28;20419;-77
2022/11/26 13:07:27;;;;;;;63.67;34.23;;;;;;;;;;5017902;28;20972;-76
2022/11/26 13:09:55;;;;;;;70.43;35.57;;;;;;;;;;5021070;28;20236;-76
2022/11/26 13:12:30;;;;;;;70.50;32.17;;;;;;;;;;5023715;28;20234;-76
2022/11/26 13:15:01;;;;;;;59.13;32.07;;;;;;;;;;5023689;28;20407;-75
2022/11/26 13:17:33;;;;;;;72.17;34.17;;;;;;;;;;5016777;28;20420;-76
2022/11/26 13:20:08;;;;;;;71.40;35.53;;;;;;;;;;5022818;28;20419;-76
2022/11/26 13:22:52;;;;;;;66.77;32.63;;;;;;;;;;5023551;28;20443;-77
2022/11/26 13:25:23;;;;;;;67.57;31.30;;;;;;;;;;5024698;28;20410;-76
2022/11/26 13:28:02;;;;;;;72.80;33.90;;;;;;;;;;5009212;28;20896;-76
2022/11/26 13:30:33;;;;;;;63.23;33.60;;;;;;;;;;5022327;28;20458;-76
2022/11/26 13:33:24;;;;;;;65.13;32.90;;;;;;;;;;5022175;28;20448;-77
2022/11/26 13:36:08;;;;;;;65.27;31.57;;;;;;;;;;5019098;28;20424;-76
2022/11/26 13:38:42;;;;;;;65.07;30.77;;;;;;;;;;5022472;28;20404;-76
2022/11/26 13:41:13;;;;;;;65.73;31.83;;;;;;;;;;5022181;28;20412;-77
2022/11/26 13:43:48;;;;;;;66.90;32.67;;;;;;;;;;5023044;28;20976;-76
2022/11/26 13:46:25;;;;;;;62.27;31.87;;;;;;;;;;5007547;28;20415;-76
2022/11/26 13:48:56;;;;;;;66.80;30.30;;;;;;;;;;5019728;28;20451;-76
2022/11/26 13:51:26;;;;;;;66.67;30.10;;;;;;;;;;5006903;28;20778;-76
2022/11/26 13:53:51;;;;;;;57.17;31.77;;;;;;;;;;5023430;28;20412;-76
2022/11/26 13:56:19;;;;;;;60.77;30.37;;;;;;;;;;5006054;28;20780;-76
2022/11/26 13:58:48;;;;;;;63.47;30.93;;;;;;;;;;5008479;28;20566;-76
2022/11/26 14:01:35;;;;;;;52.13;31.40;;;;;;;;;;5022586;28;20418;-76
2022/11/26 14:04:02;;;;;;;70.23;31.97;;;;;;;;;;5022918;28;20905;-76
2022/11/26 14:06:27;;;;;;;64.50;31.83;;;;;;;;;;5007620;28;20434;-76
2022/11/26 14:08:53;;;;;;;57.87;28.50;;;;;;;;;;5024086;28;20454;-76
2022/11/26 14:11:37;;;;;;;59.03;28.70;;;;;;;;;;5025354;28;20173;-76
2022/11/26 14:14:21;;;;;;;53.40;29.50;;;;;;;;;;5025579;28;20172;-76
2022/11/26 14:17:12;;;;;;;59.63;29.87;;;;;;;;;;5023302;28;20502;-76
2022/11/26 14:19:43;;;;;;;53.93;27.43;;;;;;;;;;5019165;28;20432;-77
2022/11/26 14:22:21;;;;;;;59.77;30.27;;;;;;;;;;5022068;28;20456;-77
2022/11/26 14:24:49;;;;;;;61.07;30.73;;;;;;;;;;5020699;28;20430;-77
2022/11/26 14:27:20;;;;;;;60.13;30.30;;;;;;;;;;5023366;28;20424;-77
2022/11/26 14:29:46;;;;;;;65.27;30.07;;;;;;;;;;5017865;28;20529;-76
2022/11/26 14:32:13;;;;;;;59.67;32.90;;;;;;;;;;5001688;28;20942;-76
2022/11/26 14:34:52;;;;;;;62.10;32.30;;;;;;;;;;5022363;28;20420;-76